sensor_id;sensor_type;location;lat;lon;timestamp;temperature;humidity
49821;DHT22;36893;52.520;13.450;2023-01-10T00:04:50;20.30;85.40
49821;DHT22;36893;52.520;13.450;2023-01-10T00:14:50;20.30;85.40
49821;DHT22;36893;52.520;13.450;2023-01-10T00:24:51;20.30;85.40
49821;DHT22;36893;52.520;13.450;2023-01-10T00:34:52;20.30;85.40
49821;DHT22;36893;52.520;13.450;2023-01-10T00:44:53;20.20;85.20
49821;DHT22;36893;52.520;13.450;2023-01-10T00:54:53;20.20;85.20
49821;DHT22;36893;52.520;13.450;2023-01-10T01:04:54;20.20;85.20
49821;DHT22;36893;52.520;13.450;2023-01-10T01:14:54;20.20;85.10
49821;DHT22;36893;52.520;13.450;2023-01-10T01:24:55;20.20;85.10
49821;DHT22;36893;52.520;13.450;2023-01-10T01:34:56;20.20;85.10
49821;DHT22;36893;52.520;13.450;2023-01-10T01:55:21;20.20;85.10
49821;DHT22;36893;52.520;13.450;2023-01-10T02:05:24;20.10;84.90
49821;DHT22;36893;52.520;13.450;2023-01-10T02:15:25;20.10;85.00
49821;DHT22;36893;52.520;13.450;2023-01-10T02:46:05;20.10;84.90
49821;DHT22;36893;52.520;13.450;2023-01-10T02:56:33;20.10;84.90
49821;DHT22;36893;52.520;13.450;2023-01-10T03:07:21;20.10;84.90
49821;DHT22;36893;52.520;13.450;2023-01-10T03:17:26;20.10;84.90
49821;DHT22;36893;52.520;13.450;2023-01-10T03:27:53;20.00;84.70
49821;DHT22;36893;52.520;13.450;2023-01-10T03:38:01;20.00;84.70
49821;DHT22;36893;52.520;13.450;2023-01-10T03:48:07;20.00;84.70
49821;DHT22;36893;52.520;13.450;2023-01-10T03:58:09;20.00;84.60
49821;DHT22;36893;52.520;13.450;2023-01-10T04:08:10;20.00;84.50
49821;DHT22;36893;52.520;13.450;2023-01-10T04:18:10;20.00;84.50
49821;DHT22;36893;52.520;13.450;2023-01-10T04:28:12;20.00;84.50
49821;DHT22;36893;52.520;13.450;2023-01-10T04:38:12;20.00;84.50
49821;DHT22;36893;52.520;13.450;2023-01-10T04:48:13;19.90;84.40
49821;DHT22;36893;52.520;13.450;2023-01-10T04:58:14;19.90;84.40
49821;DHT22;36893;52.520;13.450;2023-01-10T05:08:15;20.00;84.40
49821;DHT22;36893;52.520;13.450;2023-01-10T05:18:15;19.90;84.40
49821;DHT22;36893;52.520;13.450;2023-01-10T05:28:16;19.90;84.30
49821;DHT22;36893;52.520;13.450;2023-01-10T05:38:16;19.90;84.30
49821;DHT22;36893;52.520;13.450;2023-01-10T05:48:17;19.90;84.30
49821;DHT22;36893;52.520;13.450;2023-01-10T05:58:18;19.90;84.30
49821;DHT22;36893;52.520;13.450;2023-01-10T06:08:19;19.90;84.20
49821;DHT22;36893;52.520;13.450;2023-01-10T06:18:20;19.90;84.30
49821;DHT22;36893;52.520;13.450;2023-01-10T06:28:20;19.90;84.30
49821;DHT22;36893;52.520;13.450;2023-01-10T06:38:21;20.10;84.30
49821;DHT22;36893;52.520;13.450;2023-01-10T06:48:22;20.20;84.10
49821;DHT22;36893;52.520;13.450;2023-01-10T06:58:23;20.40;83.90
49821;DHT22;36893;52.520;13.450;2023-01-10T07:08:23;20.50;83.90
49821;DHT22;36893;52.520;13.450;2023-01-10T07:18:24;20.60;83.80
49821;DHT22;36893;52.520;13.450;2023-01-10T07:28:25;20.60;83.70
49821;DHT22;36893;52.520;13.450;2023-01-10T07:38:25;20.70;83.70
49821;DHT22;36893;52.520;13.450;2023-01-10T07:48:27;20.80;83.70
49821;DHT22;36893;52.520;13.450;2023-01-10T07:58:28;20.80;83.70
49821;DHT22;36893;52.520;13.450;2023-01-10T08:08:29;20.90;83.70
49821;DHT22;36893;52.520;13.450;2023-01-10T08:18:30;20.90;83.70
49821;DHT22;36893;52.520;13.450;2023-01-10T08:28:31;20.90;83.60
49821;DHT22;36893;52.520;13.450;2023-01-10T08:38:32;20.90;83.50
49821;DHT22;36893;52.520;13.450;2023-01-10T08:48:33;21.00;83.40
49821;DHT22;36893;52.520;13.450;2023-01-10T08:58:33;21.10;83.40
49821;DHT22;36893;52.520;13.450;2023-01-10T09:08:35;21.00;83.40
49821;DHT22;36893;52.520;13.450;2023-01-10T09:18:35;21.10;83.40
49821;DHT22;36893;52.520;13.450;2023-01-10T09:28:36;21.20;83.30
49821;DHT22;36893;52.520;13.450;2023-01-10T09:38:37;21.20;83.10
49821;DHT22;36893;52.520;13.450;2023-01-10T09:58:53;21.30;83.10
49821;DHT22;36893;52.520;13.450;2023-01-10T10:08:56;21.30;83.00
49821;DHT22;36893;52.520;13.450;2023-01-10T10:30:30;21.40;83.20
49821;DHT22;36893;52.520;13.450;2023-01-10T10:40:36;21.40;83.20
49821;DHT22;36893;52.520;13.450;2023-01-10T10:50:47;21.40;83.20
49821;DHT22;36893;52.520;13.450;2023-01-10T11:00:51;21.40;83.30
49821;DHT22;36893;52.520;13.450;2023-01-10T11:10:55;21.40;83.30
49821;DHT22;36893;52.520;13.450;2023-01-10T11:21:02;21.50;83.30
49821;DHT22;36893;52.520;13.450;2023-01-10T11:31:05;21.50;83.20
49821;DHT22;36893;52.520;13.450;2023-01-10T11:51:24;21.50;83.30
49821;DHT22;36893;52.520;13.450;2023-01-10T12:01:37;21.60;83.30
49821;DHT22;36893;52.520;13.450;2023-01-10T12:11:40;21.60;83.20
49821;DHT22;36893;52.520;13.450;2023-01-10T12:21:43;21.70;83.20
49821;DHT22;36893;52.520;13.450;2023-01-10T12:31:44;21.70;83.10
49821;DHT22;36893;52.520;13.450;2023-01-10T12:52:17;21.80;83.20
49821;DHT22;36893;52.520;13.450;2023-01-10T13:02:27;21.80;83.20
49821;DHT22;36893;52.520;13.450;2023-01-10T13:12:42;21.80;83.10
49821;DHT22;36893;52.520;13.450;2023-01-10T13:22:50;21.90;83.00
49821;DHT22;36893;52.520;13.450;2023-01-10T13:33:06;21.90;82.90
49821;DHT22;36893;52.520;13.450;2023-01-10T14:03:53;21.60;83.10
49821;DHT22;36893;52.520;13.450;2023-01-10T14:13:59;21.50;83.30
49821;DHT22;36893;52.520;13.450;2023-01-10T14:24:01;21.50;83.30
49821;DHT22;36893;52.520;13.450;2023-01-10T14:34:02;21.40;83.20
49821;DHT22;36893;52.520;13.450;2023-01-10T14:44:53;21.40;83.50
49821;DHT22;36893;52.520;13.450;2023-01-10T14:54:27;21.40;83.50
49821;DHT22;36893;52.520;13.450;2023-01-10T15:04:31;21.40;83.40
49821;DHT22;36893;52.520;13.450;2023-01-10T15:14:32;21.40;83.50
49821;DHT22;36893;52.520;13.450;2023-01-10T15:24:35;21.40;83.50
49821;DHT22;36893;52.520;13.450;2023-01-10T15:34:37;21.30;83.60
49821;DHT22;36893;52.520;13.450;2023-01-10T15:44:43;21.30;83.70
49821;DHT22;36893;52.520;13.450;2023-01-10T15:54:45;21.30;83.80
49821;DHT22;36893;52.520;13.450;2023-01-10T16:04:46;21.40;83.90
49821;DHT22;36893;52.520;13.450;2023-01-10T16:14:48;21.40;83.80
49821;DHT22;36893;52.520;13.450;2023-01-10T16:24:48;21.50;83.70
49821;DHT22;36893;52.520;13.450;2023-01-10T16:34:51;21.60;83.60
49821;DHT22;36893;52.520;13.450;2023-01-10T16:44:52;21.70;83.50
49821;DHT22;36893;52.520;13.450;2023-01-10T16:54:52;21.70;83.50
49821;DHT22;36893;52.520;13.450;2023-01-10T17:04:53;21.80;83.40
49821;DHT22;36893;52.520;13.450;2023-01-10T17:14:54;21.80;83.30
49821;DHT22;36893;52.520;13.450;2023-01-10T17:24:54;21.90;83.20
49821;DHT22;36893;52.520;13.450;2023-01-10T17:34:55;21.90;83.00
49821;DHT22;36893;52.520;13.450;2023-01-10T17:44:56;21.90;83.00
49821;DHT22;36893;52.520;13.450;2023-01-10T17:54:56;22.00;82.90
49821;DHT22;36893;52.520;13.450;2023-01-10T18:04:57;22.00;82.80
49821;DHT22;36893;52.520;13.450;2023-01-10T18:14:57;22.00;82.80
49821;DHT22;36893;52.520;13.450;2023-01-10T18:24:58;22.10;82.80
49821;DHT22;36893;52.520;13.450;2023-01-10T18:34:59;22.10;82.70
49821;DHT22;36893;52.520;13.450;2023-01-10T18:44:59;22.10;82.70
49821;DHT22;36893;52.520;13.450;2023-01-10T18:55:00;22.10;82.60
49821;DHT22;36893;52.520;13.450;2023-01-10T19:05:01;22.10;82.60
49821;DHT22;36893;52.520;13.450;2023-01-10T19:15:04;22.20;82.70
49821;DHT22;36893;52.520;13.450;2023-01-10T19:25:05;22.20;82.70
49821;DHT22;36893;52.520;13.450;2023-01-10T19:35:06;22.20;82.70
49821;DHT22;36893;52.520;13.450;2023-01-10T19:45:07;22.20;82.60
49821;DHT22;36893;52.520;13.450;2023-01-10T19:55:08;22.20;82.60
49821;DHT22;36893;52.520;13.450;2023-01-10T20:05:08;22.30;82.70
49821;DHT22;36893;52.520;13.450;2023-01-10T20:15:09;22.20;82.60
49821;DHT22;36893;52.520;13.450;2023-01-10T20:25:10;22.20;82.70
49821;DHT22;36893;52.520;13.450;2023-01-10T20:35:11;22.20;82.60
49821;DHT22;36893;52.520;13.450;2023-01-10T20:45:13;22.30;82.70
49821;DHT22;36893;52.520;13.450;2023-01-10T20:55:13;22.20;82.70
49821;DHT22;36893;52.520;13.450;2023-01-10T21:05:18;22.30;82.70
49821;DHT22;36893;52.520;13.450;2023-01-10T21:15:19;22.30;82.70
49821;DHT22;36893;52.520;13.450;2023-01-10T21:25:20;22.20;82.80
49821;DHT22;36893;52.520;13.450;2023-01-10T21:35:20;22.10;83.00
49821;DHT22;36893;52.520;13.450;2023-01-10T21:45:21;22.00;83.30
49821;DHT22;36893;52.520;13.450;2023-01-10T21:55:22;21.90;83.40
49821;DHT22;36893;52.520;13.450;2023-01-10T22:05:22;21.90;83.50
49821;DHT22;36893;52.520;13.450;2023-01-10T22:15:23;21.80;83.50
49821;DHT22;36893;52.520;13.450;2023-01-10T22:25:26;21.70;83.40
49821;DHT22;36893;52.520;13.450;2023-01-10T22:35:26;21.70;83.40
49821;DHT22;36893;52.520;13.450;2023-01-10T22:45:27;21.60;83.40
49821;DHT22;36893;52.520;13.450;2023-01-10T22:55:32;21.60;83.30
49821;DHT22;36893;52.520;13.450;2023-01-10T23:05:33;21.60;83.30
49821;DHT22;36893;52.520;13.450;2023-01-10T23:15:34;21.50;83.20
49821;DHT22;36893;52.520;13.450;2023-01-10T23:25:35;21.50;83.20
49821;DHT22;36893;52.520;13.450;2023-01-10T23:35:35;21.40;83.10
49821;DHT22;36893;52.520;13.450;2023-01-10T23:45:36;21.40;83.10
49821;DHT22;36893;52.520;13.450;2023-01-10T23:55:37;21.30;83.00
